sensor_id;sensor_type;location;lat;lon;timestamp;P1;durP1;ratioP1;P2;durP2;ratioP2
18433;SDS011;9344;52.294;13.626;2022-11-14T00:01:12;47.13;;;12.73;;
18433;SDS011;9344;52.294;13.626;2022-11-14T00:03:40;51.80;;;13.80;;
18433;SDS011;9344;52.294;13.626;2022-11-14T00:06:07;47.58;;;12.68;;
18433;SDS011;9344;52.294;13.626;2022-11-14T00:08:34;44.97;;;12.35;;
18433;SDS011;9344;52.294;13.626;2022-11-14T00:11:00;48.58;;;13.57;;
18433;SDS011;9344;52.294;13.626;2022-11-14T00:13:27;47.47;;;13.60;;
18433;SDS011;9344;52.294;13.626;2022-11-14T00:15:54;50.92;;;13.90;;
18433;SDS011;9344;52.294;13.626;2022-11-14T00:18:20;46.50;;;13.43;;
18433;SDS011;9344;52.294;13.626;2022-11-14T00:20:49;49.92;;;13.38;;
18433;SDS011;9344;52.294;13.626;2022-11-14T00:23:16;52.67;;;13.13;;
18433;SDS011;9344;52.294;13.626;2022-11-14T00:25:43;53.35;;;14.10;;
18433;SDS011;9344;52.294;13.626;2022-11-14T00:28:10;49.53;;;12.02;;
18433;SDS011;9344;52.294;13.626;2022-11-14T00:30:37;54.08;;;13.93;;
18433;SDS011;9344;52.294;13.626;2022-11-14T00:33:03;55.45;;;13.73;;
18433;SDS011;9344;52.294;13.626;2022-11-14T00:35:30;56.05;;;13.65;;
18433;SDS011;9344;52.294;13.626;2022-11-14T00:37:58;59.03;;;14.88;;
18433;SDS011;9344;52.294;13.626;2022-11-14T00:40:24;56.75;;;14.48;;
18433;SDS011;9344;52.294;13.626;2022-11-14T00:42:51;46.00;;;13.20;;
18433;SDS011;9344;52.294;13.626;2022-11-14T00:45:17;47.65;;;12.38;;
18433;SDS011;9344;52.294;13.626;2022-11-14T00:47:44;45.53;;;12.93;;
18433;SDS011;9344;52.294;13.626;2022-11-14T00:50:10;50.55;;;12.95;;
18433;SDS011;9344;52.294;13.626;2022-11-14T00:52:37;52.80;;;12.75;;
18433;SDS011;9344;52.294;13.626;2022-11-14T00:55:05;54.85;;;13.13;;
18433;SDS011;9344;52.294;13.626;2022-11-14T00:57:33;52.78;;;13.85;;
18433;SDS011;9344;52.294;13.626;2022-11-14T00:59:59;49.90;;;14.45;;
18433;SDS011;9344;52.294;13.626;2022-11-14T01:02:26;46.47;;;13.02;;
18433;SDS011;9344;52.294;13.626;2022-11-14T01:04:52;53.88;;;14.48;;
18433;SDS011;9344;52.294;13.626;2022-11-14T01:07:19;50.70;;;15.15;;
18433;SDS011;9344;52.294;13.626;2022-11-14T01:09:45;58.53;;;14.65;;
18433;SDS011;9344;52.294;13.626;2022-11-14T01:12:13;54.13;;;13.63;;
18433;SDS011;9344;52.294;13.626;2022-11-14T01:14:39;52.22;;;13.95;;
18433;SDS011;9344;52.294;13.626;2022-11-14T01:17:06;53.85;;;14.65;;
18433;SDS011;9344;52.294;13.626;2022-11-14T01:19:33;57.45;;;15.85;;
18433;SDS011;9344;52.294;13.626;2022-11-14T01:21:59;55.95;;;15.02;;
18433;SDS011;9344;52.294;13.626;2022-11-14T01:24:26;61.65;;;16.35;;
18433;SDS011;9344;52.294;13.626;2022-11-14T01:26:53;54.90;;;14.10;;
18433;SDS011;9344;52.294;13.626;2022-11-14T01:29:21;58.03;;;14.40;;
18433;SDS011;9344;52.294;13.626;2022-11-14T01:31:48;55.55;;;14.10;;
18433;SDS011;9344;52.294;13.626;2022-11-14T01:34:15;66.25;;;15.48;;
18433;SDS011;9344;52.294;13.626;2022-11-14T01:36:41;68.13;;;14.85;;
18433;SDS011;9344;52.294;13.626;2022-11-14T01:39:08;54.63;;;14.10;;
18433;SDS011;9344;52.294;13.626;2022-11-14T01:41:34;66.82;;;15.10;;
18433;SDS011;9344;52.294;13.626;2022-11-14T01:44:01;52.53;;;13.73;;
18433;SDS011;9344;52.294;13.626;2022-11-14T01:46:29;57.20;;;13.52;;
18433;SDS011;9344;52.294;13.626;2022-11-14T01:49:00;49.95;;;13.38;;
18433;SDS011;9344;52.294;13.626;2022-11-14T01:51:31;57.70;;;13.63;;
18433;SDS011;9344;52.294;13.626;2022-11-14T01:54:02;52.80;;;15.45;;
18433;SDS011;9344;52.294;13.626;2022-11-14T01:56:33;59.20;;;15.68;;
18433;SDS011;9344;52.294;13.626;2022-11-14T01:59:04;53.42;;;13.63;;
18433;SDS011;9344;52.294;13.626;2022-11-14T02:01:37;62.45;;;15.27;;
18433;SDS011;9344;52.294;13.626;2022-11-14T02:04:07;50.47;;;13.02;;
18433;SDS011;9344;52.294;13.626;2022-11-14T02:06:33;63.95;;;14.93;;
18433;SDS011;9344;52.294;13.626;2022-11-14T02:09:02;61.08;;;14.15;;
18433;SDS011;9344;52.294;13.626;2022-11-14T02:11:32;62.10;;;15.13;;
18433;SDS011;9344;52.294;13.626;2022-11-14T02:14:02;64.32;;;15.88;;
18433;SDS011;9344;52.294;13.626;2022-11-14T02:16:29;60.35;;;15.55;;
18433;SDS011;9344;52.294;13.626;2022-11-14T02:18:57;57.50;;;14.52;;
18433;SDS011;9344;52.294;13.626;2022-11-14T02:21:25;59.80;;;14.90;;
18433;SDS011;9344;52.294;13.626;2022-11-14T02:23:52;57.28;;;14.52;;
18433;SDS011;9344;52.294;13.626;2022-11-14T02:26:18;74.90;;;17.75;;
18433;SDS011;9344;52.294;13.626;2022-11-14T02:28:46;63.58;;;15.40;;
18433;SDS011;9344;52.294;13.626;2022-11-14T02:31:13;59.63;;;14.27;;
18433;SDS011;9344;52.294;13.626;2022-11-14T02:33:40;63.88;;;16.25;;
18433;SDS011;9344;52.294;13.626;2022-11-14T02:36:07;67.85;;;16.42;;
18433;SDS011;9344;52.294;13.626;2022-11-14T02:38:35;54.88;;;15.80;;
18433;SDS011;9344;52.294;13.626;2022-11-14T02:41:02;56.20;;;14.57;;
18433;SDS011;9344;52.294;13.626;2022-11-14T02:43:28;60.53;;;15.57;;
18433;SDS011;9344;52.294;13.626;2022-11-14T02:45:55;69.70;;;15.48;;
18433;SDS011;9344;52.294;13.626;2022-11-14T02:48:21;68.05;;;16.58;;
18433;SDS011;9344;52.294;13.626;2022-11-14T02:50:48;64.13;;;14.70;;
18433;SDS011;9344;52.294;13.626;2022-11-14T02:53:15;53.40;;;14.02;;
18433;SDS011;9344;52.294;13.626;2022-11-14T02:55:42;58.75;;;14.20;;
18433;SDS011;9344;52.294;13.626;2022-11-14T02:58:09;57.78;;;14.48;;
18433;SDS011;9344;52.294;13.626;2022-11-14T03:00:35;54.05;;;12.88;;
18433;SDS011;9344;52.294;13.626;2022-11-14T03:03:02;57.10;;;13.45;;
18433;SDS011;9344;52.294;13.626;2022-11-14T03:05:29;56.38;;;14.48;;
18433;SDS011;9344;52.294;13.626;2022-11-14T03:07:55;57.22;;;14.20;;
18433;SDS011;9344;52.294;13.626;2022-11-14T03:10:22;51.42;;;13.75;;
18433;SDS011;9344;52.294;13.626;2022-11-14T03:12:53;57.08;;;14.10;;
18433;SDS011;9344;52.294;13.626;2022-11-14T03:15:19;55.70;;;13.90;;
18433;SDS011;9344;52.294;13.626;2022-11-14T03:17:46;56.97;;;12.95;;
18433;SDS011;9344;52.294;13.626;2022-11-14T03:20:12;50.90;;;11.98;;
18433;SDS011;9344;52.294;13.626;2022-11-14T03:22:39;60.17;;;13.70;;
18433;SDS011;9344;52.294;13.626;2022-11-14T03:25:06;56.13;;;14.65;;
18433;SDS011;9344;52.294;13.626;2022-11-14T03:27:33;64.10;;;13.75;;
18433;SDS011;9344;52.294;13.626;2022-11-14T03:30:01;60.97;;;15.18;;
18433;SDS011;9344;52.294;13.626;2022-11-14T03:32:27;51.55;;;13.18;;
18433;SDS011;9344;52.294;13.626;2022-11-14T03:34:54;54.22;;;13.48;;
18433;SDS011;9344;52.294;13.626;2022-11-14T03:37:20;60.83;;;14.15;;
18433;SDS011;9344;52.294;13.626;2022-11-14T03:39:47;57.83;;;14.20;;
18433;SDS011;9344;52.294;13.626;2022-11-14T03:42:13;58.65;;;14.73;;
18433;SDS011;9344;52.294;13.626;2022-11-14T03:44:40;59.15;;;14.55;;
18433;SDS011;9344;52.294;13.626;2022-11-14T03:47:08;59.92;;;14.52;;
18433;SDS011;9344;52.294;13.626;2022-11-14T03:49:34;61.33;;;13.75;;
18433;SDS011;9344;52.294;13.626;2022-11-14T03:52:01;62.15;;;13.32;;
18433;SDS011;9344;52.294;13.626;2022-11-14T03:54:27;62.28;;;15.15;;
18433;SDS011;9344;52.294;13.626;2022-11-14T03:56:54;66.88;;;15.32;;
18433;SDS011;9344;52.294;13.626;2022-11-14T03:59:20;65.70;;;14.90;;
18433;SDS011;9344;52.294;13.626;2022-11-14T04:01:47;59.22;;;14.38;;
18433;SDS011;9344;52.294;13.626;2022-11-14T04:04:15;64.18;;;13.30;;
18433;SDS011;9344;52.294;13.626;2022-11-14T04:06:41;65.95;;;14.73;;
18433;SDS011;9344;52.294;13.626;2022-11-14T04:09:08;52.30;;;14.13;;
18433;SDS011;9344;52.294;13.626;2022-11-14T04:11:35;58.78;;;15.00;;
18433;SDS011;9344;52.294;13.626;2022-11-14T04:14:01;53.75;;;12.95;;
18433;SDS011;9344;52.294;13.626;2022-11-14T04:16:28;51.53;;;13.13;;
18433;SDS011;9344;52.294;13.626;2022-11-14T04:18:54;62.80;;;14.07;;
18433;SDS011;9344;52.294;13.626;2022-11-14T04:21:22;52.13;;;13.43;;
18433;SDS011;9344;52.294;13.626;2022-11-14T04:23:49;58.75;;;13.88;;
18433;SDS011;9344;52.294;13.626;2022-11-14T04:26:15;57.70;;;14.93;;
18433;SDS011;9344;52.294;13.626;2022-11-14T04:28:42;62.58;;;14.70;;
18433;SDS011;9344;52.294;13.626;2022-11-14T04:31:09;67.97;;;14.15;;
18433;SDS011;9344;52.294;13.626;2022-11-14T04:33:35;60.47;;;13.70;;
18433;SDS011;9344;52.294;13.626;2022-11-14T04:36:02;69.55;;;14.20;;
18433;SDS011;9344;52.294;13.626;2022-11-14T04:38:30;56.78;;;13.52;;
18433;SDS011;9344;52.294;13.626;2022-11-14T04:40:57;63.95;;;13.88;;
18433;SDS011;9344;52.294;13.626;2022-11-14T04:43:23;70.93;;;15.18;;
18433;SDS011;9344;52.294;13.626;2022-11-14T04:45:50;53.83;;;13.30;;
18433;SDS011;9344;52.294;13.626;2022-11-14T04:48:16;61.13;;;12.80;;
18433;SDS011;9344;52.294;13.626;2022-11-14T04:50:43;63.47;;;15.07;;
18433;SDS011;9344;52.294;13.626;2022-11-14T04:53:10;64.43;;;13.35;;
18433;SDS011;9344;52.294;13.626;2022-11-14T04:55:38;65.68;;;14.68;;
18433;SDS011;9344;52.294;13.626;2022-11-14T04:58:04;63.92;;;13.70;;
18433;SDS011;9344;52.294;13.626;2022-11-14T05:00:31;60.20;;;14.73;;
18433;SDS011;9344;52.294;13.626;2022-11-14T05:02:58;64.97;;;14.43;;
18433;SDS011;9344;52.294;13.626;2022-11-14T05:05:24;60.97;;;14.68;;
18433;SDS011;9344;52.294;13.626;2022-11-14T05:07:51;63.50;;;14.60;;
18433;SDS011;9344;52.294;13.626;2022-11-14T05:10:19;64.28;;;14.88;;
18433;SDS011;9344;52.294;13.626;2022-11-14T05:12:47;63.22;;;15.82;;
18433;SDS011;9344;52.294;13.626;2022-11-14T05:15:13;58.15;;;16.60;;
18433;SDS011;9344;52.294;13.626;2022-11-14T05:17:40;57.35;;;14.68;;
18433;SDS011;9344;52.294;13.626;2022-11-14T05:20:06;73.53;;;19.08;;
18433;SDS011;9344;52.294;13.626;2022-11-14T05:22:34;59.45;;;17.60;;
18433;SDS011;9344;52.294;13.626;2022-11-14T05:25:00;65.85;;;16.10;;
18433;SDS011;9344;52.294;13.626;2022-11-14T05:27:27;68.13;;;17.75;;
18433;SDS011;9344;52.294;13.626;2022-11-14T05:29:55;62.65;;;15.55;;
18433;SDS011;9344;52.294;13.626;2022-11-14T05:32:22;68.47;;;15.55;;
18433;SDS011;9344;52.294;13.626;2022-11-14T05:34:48;65.38;;;15.65;;
18433;SDS011;9344;52.294;13.626;2022-11-14T05:37:15;59.17;;;14.75;;
18433;SDS011;9344;52.294;13.626;2022-11-14T05:39:41;69.18;;;14.77;;
18433;SDS011;9344;52.294;13.626;2022-11-14T05:42:08;68.95;;;15.10;;
18433;SDS011;9344;52.294;13.626;2022-11-14T05:44:34;56.42;;;12.82;;
18433;SDS011;9344;52.294;13.626;2022-11-14T05:47:02;68.10;;;15.52;;
18433;SDS011;9344;52.294;13.626;2022-11-14T05:49:29;64.63;;;14.40;;
18433;SDS011;9344;52.294;13.626;2022-11-14T05:51:55;71.63;;;16.48;;
18433;SDS011;9344;52.294;13.626;2022-11-14T05:54:21;65.00;;;13.95;;
18433;SDS011;9344;52.294;13.626;2022-11-14T05:56:48;60.90;;;14.90;;
18433;SDS011;9344;52.294;13.626;2022-11-14T05:59:15;65.70;;;14.20;;
18433;SDS011;9344;52.294;13.626;2022-11-14T06:01:41;69.72;;;15.05;;
18433;SDS011;9344;52.294;13.626;2022-11-14T06:04:09;66.45;;;14.85;;
18433;SDS011;9344;52.294;13.626;2022-11-14T06:06:37;55.38;;;14.50;;
18433;SDS011;9344;52.294;13.626;2022-11-14T06:09:04;63.70;;;14.40;;
18433;SDS011;9344;52.294;13.626;2022-11-14T06:11:30;63.08;;;14.77;;
18433;SDS011;9344;52.294;13.626;2022-11-14T06:13:57;61.65;;;13.88;;
18433;SDS011;9344;52.294;13.626;2022-11-14T06:16:23;55.97;;;14.15;;
18433;SDS011;9344;52.294;13.626;2022-11-14T06:18:51;62.90;;;14.57;;
18433;SDS011;9344;52.294;13.626;2022-11-14T06:21:19;55.70;;;13.45;;
18433;SDS011;9344;52.294;13.626;2022-11-14T06:23:47;71.88;;;14.43;;
18433;SDS011;9344;52.294;13.626;2022-11-14T06:26:18;62.08;;;14.88;;
18433;SDS011;9344;52.294;13.626;2022-11-14T06:28:46;62.22;;;14.93;;
18433;SDS011;9344;52.294;13.626;2022-11-14T06:31:13;62.35;;;14.88;;
18433;SDS011;9344;52.294;13.626;2022-11-14T06:33:40;74.75;;;16.30;;
18433;SDS011;9344;52.294;13.626;2022-11-14T06:36:07;60.38;;;14.38;;
18433;SDS011;9344;52.294;13.626;2022-11-14T06:38:36;61.63;;;14.48;;
18433;SDS011;9344;52.294;13.626;2022-11-14T06:41:04;66.70;;;14.40;;
18433;SDS011;9344;52.294;13.626;2022-11-14T06:43:32;63.42;;;15.02;;
18433;SDS011;9344;52.294;13.626;2022-11-14T06:45:59;64.15;;;15.00;;
18433;SDS011;9344;52.294;13.626;2022-11-14T06:48:26;68.78;;;14.75;;
18433;SDS011;9344;52.294;13.626;2022-11-14T06:50:53;66.15;;;15.07;;
18433;SDS011;9344;52.294;13.626;2022-11-14T06:53:20;59.20;;;13.75;;
18433;SDS011;9344;52.294;13.626;2022-11-14T06:55:55;61.92;;;13.95;;
18433;SDS011;9344;52.294;13.626;2022-11-14T06:58:24;61.70;;;13.73;;
18433;SDS011;9344;52.294;13.626;2022-11-14T07:00:52;59.45;;;14.07;;
18433;SDS011;9344;52.294;13.626;2022-11-14T07:03:18;71.75;;;15.50;;
18433;SDS011;9344;52.294;13.626;2022-11-14T07:05:45;58.55;;;14.60;;
18433;SDS011;9344;52.294;13.626;2022-11-14T07:08:11;62.45;;;14.90;;
18433;SDS011;9344;52.294;13.626;2022-11-14T07:10:38;71.90;;;15.52;;
18433;SDS011;9344;52.294;13.626;2022-11-14T07:13:06;64.93;;;14.45;;
18433;SDS011;9344;52.294;13.626;2022-11-14T07:15:34;66.20;;;14.68;;
18433;SDS011;9344;52.294;13.626;2022-11-14T07:18:00;59.08;;;14.40;;
18433;SDS011;9344;52.294;13.626;2022-11-14T07:20:27;64.93;;;14.18;;
18433;SDS011;9344;52.294;13.626;2022-11-14T07:22:53;75.43;;;15.38;;
18433;SDS011;9344;52.294;13.626;2022-11-14T07:25:20;70.97;;;15.18;;
18433;SDS011;9344;52.294;13.626;2022-11-14T07:27:47;63.42;;;15.45;;
18433;SDS011;9344;52.294;13.626;2022-11-14T07:30:15;58.90;;;14.48;;
18433;SDS011;9344;52.294;13.626;2022-11-14T07:32:42;66.68;;;14.63;;
18433;SDS011;9344;52.294;13.626;2022-11-14T07:35:08;63.35;;;14.48;;
18433;SDS011;9344;52.294;13.626;2022-11-14T07:37:35;62.03;;;15.15;;
18433;SDS011;9344;52.294;13.626;2022-11-14T07:40:02;70.75;;;14.80;;
18433;SDS011;9344;52.294;13.626;2022-11-14T07:42:29;63.25;;;15.05;;
18433;SDS011;9344;52.294;13.626;2022-11-14T07:44:55;67.20;;;15.18;;
18433;SDS011;9344;52.294;13.626;2022-11-14T07:47:23;58.80;;;14.10;;
18433;SDS011;9344;52.294;13.626;2022-11-14T07:49:51;58.75;;;13.65;;
18433;SDS011;9344;52.294;13.626;2022-11-14T07:52:18;59.15;;;13.15;;
18433;SDS011;9344;52.294;13.626;2022-11-14T07:54:44;49.13;;;13.13;;
18433;SDS011;9344;52.294;13.626;2022-11-14T07:57:11;59.90;;;13.63;;
18433;SDS011;9344;52.294;13.626;2022-11-14T07:59:37;50.40;;;14.13;;
18433;SDS011;9344;52.294;13.626;2022-11-14T08:02:04;61.92;;;14.48;;
18433;SDS011;9344;52.294;13.626;2022-11-14T08:04:32;58.58;;;13.50;;
18433;SDS011;9344;52.294;13.626;2022-11-14T08:06:58;53.15;;;12.85;;
18433;SDS011;9344;52.294;13.626;2022-11-14T08:09:25;64.05;;;12.65;;
18433;SDS011;9344;52.294;13.626;2022-11-14T08:11:51;51.75;;;12.65;;
18433;SDS011;9344;52.294;13.626;2022-11-14T08:14:18;58.40;;;13.90;;
18433;SDS011;9344;52.294;13.626;2022-11-14T08:16:45;59.20;;;13.55;;
18433;SDS011;9344;52.294;13.626;2022-11-14T08:19:11;53.20;;;13.38;;
18433;SDS011;9344;52.294;13.626;2022-11-14T08:21:41;56.85;;;13.93;;
18433;SDS011;9344;52.294;13.626;2022-11-14T08:24:08;64.07;;;13.75;;
18433;SDS011;9344;52.294;13.626;2022-11-14T08:26:34;54.10;;;13.63;;
18433;SDS011;9344;52.294;13.626;2022-11-14T08:29:01;58.22;;;13.63;;
18433;SDS011;9344;52.294;13.626;2022-11-14T08:31:28;51.03;;;12.90;;
18433;SDS011;9344;52.294;13.626;2022-11-14T08:33:54;59.88;;;14.40;;
18433;SDS011;9344;52.294;13.626;2022-11-14T08:36:21;58.15;;;12.90;;
18433;SDS011;9344;52.294;13.626;2022-11-14T08:38:49;61.13;;;13.40;;
18433;SDS011;9344;52.294;13.626;2022-11-14T08:41:15;52.05;;;13.00;;
18433;SDS011;9344;52.294;13.626;2022-11-14T08:43:42;52.85;;;13.20;;
18433;SDS011;9344;52.294;13.626;2022-11-14T08:46:08;60.75;;;14.13;;
18433;SDS011;9344;52.294;13.626;2022-11-14T08:48:35;46.03;;;11.35;;
18433;SDS011;9344;52.294;13.626;2022-11-14T08:51:02;49.10;;;12.45;;
18433;SDS011;9344;52.294;13.626;2022-11-14T08:53:30;52.90;;;12.38;;
18433;SDS011;9344;52.294;13.626;2022-11-14T08:55:58;64.22;;;12.38;;
18433;SDS011;9344;52.294;13.626;2022-11-14T08:58:26;63.20;;;11.90;;
18433;SDS011;9344;52.294;13.626;2022-11-14T09:00:53;50.72;;;12.15;;
18433;SDS011;9344;52.294;13.626;2022-11-14T09:03:23;48.85;;;11.60;;
18433;SDS011;9344;52.294;13.626;2022-11-14T09:05:50;42.67;;;12.07;;
18433;SDS011;9344;52.294;13.626;2022-11-14T09:08:17;47.58;;;11.93;;
18433;SDS011;9344;52.294;13.626;2022-11-14T09:10:44;55.55;;;12.63;;
18433;SDS011;9344;52.294;13.626;2022-11-14T09:13:12;53.00;;;12.88;;
18433;SDS011;9344;52.294;13.626;2022-11-14T09:15:38;45.42;;;10.93;;
18433;SDS011;9344;52.294;13.626;2022-11-14T09:18:05;46.45;;;11.77;;
18433;SDS011;9344;52.294;13.626;2022-11-14T09:20:32;46.63;;;11.80;;
18433;SDS011;9344;52.294;13.626;2022-11-14T09:22:58;49.65;;;12.45;;
18433;SDS011;9344;52.294;13.626;2022-11-14T09:25:25;46.53;;;12.05;;
18433;SDS011;9344;52.294;13.626;2022-11-14T09:27:52;54.50;;;12.40;;
18433;SDS011;9344;52.294;13.626;2022-11-14T09:30:21;45.55;;;12.20;;
18433;SDS011;9344;52.294;13.626;2022-11-14T09:32:47;42.53;;;10.85;;
18433;SDS011;9344;52.294;13.626;2022-11-14T09:35:14;44.13;;;11.43;;
18433;SDS011;9344;52.294;13.626;2022-11-14T09:37:41;52.17;;;12.35;;
18433;SDS011;9344;52.294;13.626;2022-11-14T09:40:09;56.70;;;12.68;;
18433;SDS011;9344;52.294;13.626;2022-11-14T09:42:43;53.45;;;11.77;;
18433;SDS011;9344;52.294;13.626;2022-11-14T09:45:23;49.78;;;12.57;;
18433;SDS011;9344;52.294;13.626;2022-11-14T09:47:51;50.17;;;11.63;;
18433;SDS011;9344;52.294;13.626;2022-11-14T09:50:21;42.70;;;12.15;;
18433;SDS011;9344;52.294;13.626;2022-11-14T09:52:53;45.08;;;11.52;;
18433;SDS011;9344;52.294;13.626;2022-11-14T09:55:21;47.70;;;10.90;;
18433;SDS011;9344;52.294;13.626;2022-11-14T09:57:52;51.38;;;12.18;;
18433;SDS011;9344;52.294;13.626;2022-11-14T10:00:21;47.08;;;12.55;;
18433;SDS011;9344;52.294;13.626;2022-11-14T10:02:56;49.90;;;12.48;;
18433;SDS011;9344;52.294;13.626;2022-11-14T10:08:29;45.35;;;10.98;;
18433;SDS011;9344;52.294;13.626;2022-11-14T10:11:07;45.85;;;12.95;;
18433;SDS011;9344;52.294;13.626;2022-11-14T10:16:35;42.40;;;11.75;;
18433;SDS011;9344;52.294;13.626;2022-11-14T10:19:14;49.05;;;12.80;;
18433;SDS011;9344;52.294;13.626;2022-11-14T10:21:53;36.00;;;10.93;;
18433;SDS011;9344;52.294;13.626;2022-11-14T10:24:35;47.25;;;12.32;;
18433;SDS011;9344;52.294;13.626;2022-11-14T10:27:16;42.63;;;10.88;;
18433;SDS011;9344;52.294;13.626;2022-11-14T10:30:04;42.30;;;12.35;;
18433;SDS011;9344;52.294;13.626;2022-11-14T10:35:30;40.38;;;10.45;;
18433;SDS011;9344;52.294;13.626;2022-11-14T10:38:03;41.65;;;12.32;;
18433;SDS011;9344;52.294;13.626;2022-11-14T10:40:37;41.85;;;11.30;;
18433;SDS011;9344;52.294;13.626;2022-11-14T10:43:12;37.90;;;10.60;;
18433;SDS011;9344;52.294;13.626;2022-11-14T10:45:45;42.90;;;11.85;;
18433;SDS011;9344;52.294;13.626;2022-11-14T10:48:19;34.17;;;10.75;;
18433;SDS011;9344;52.294;13.626;2022-11-14T10:50:55;38.72;;;10.73;;
18433;SDS011;9344;52.294;13.626;2022-11-14T10:53:26;40.67;;;11.10;;
18433;SDS011;9344;52.294;13.626;2022-11-14T10:55:56;34.83;;;10.20;;
18433;SDS011;9344;52.294;13.626;2022-11-14T10:58:23;45.65;;;12.75;;
18433;SDS011;9344;52.294;13.626;2022-11-14T11:00:49;37.17;;;10.63;;
18433;SDS011;9344;52.294;13.626;2022-11-14T11:03:16;40.05;;;10.60;;
18433;SDS011;9344;52.294;13.626;2022-11-14T11:05:48;38.47;;;10.57;;
18433;SDS011;9344;52.294;13.626;2022-11-14T11:08:19;34.58;;;10.00;;
18433;SDS011;9344;52.294;13.626;2022-11-14T11:11:04;39.67;;;10.75;;
18433;SDS011;9344;52.294;13.626;2022-11-14T11:13:56;35.92;;;9.70;;
18433;SDS011;9344;52.294;13.626;2022-11-14T11:16:25;40.92;;;9.93;;
18433;SDS011;9344;52.294;13.626;2022-11-14T11:18:53;35.03;;;11.27;;
18433;SDS011;9344;52.294;13.626;2022-11-14T11:21:46;30.73;;;9.55;;
18433;SDS011;9344;52.294;13.626;2022-11-14T11:24:24;34.95;;;10.20;;
18433;SDS011;9344;52.294;13.626;2022-11-14T11:27:11;35.08;;;10.18;;
18433;SDS011;9344;52.294;13.626;2022-11-14T11:29:39;35.88;;;10.65;;
18433;SDS011;9344;52.294;13.626;2022-11-14T11:32:06;31.20;;;9.45;;
18433;SDS011;9344;52.294;13.626;2022-11-14T11:34:33;31.40;;;9.93;;
18433;SDS011;9344;52.294;13.626;2022-11-14T11:37:03;41.63;;;10.40;;
18433;SDS011;9344;52.294;13.626;2022-11-14T11:39:39;34.08;;;10.32;;
18433;SDS011;9344;52.294;13.626;2022-11-14T11:42:07;33.55;;;9.45;;
18433;SDS011;9344;52.294;13.626;2022-11-14T11:44:42;27.10;;;9.40;;
18433;SDS011;9344;52.294;13.626;2022-11-14T11:47:11;33.38;;;9.65;;
18433;SDS011;9344;52.294;13.626;2022-11-14T11:49:42;38.83;;;10.77;;
18433;SDS011;9344;52.294;13.626;2022-11-14T11:52:12;30.88;;;9.32;;
18433;SDS011;9344;52.294;13.626;2022-11-14T11:54:49;26.27;;;8.88;;
18433;SDS011;9344;52.294;13.626;2022-11-14T11:57:22;30.88;;;10.10;;
18433;SDS011;9344;52.294;13.626;2022-11-14T11:59:54;33.80;;;10.10;;
18433;SDS011;9344;52.294;13.626;2022-11-14T12:02:27;35.80;;;10.15;;
18433;SDS011;9344;52.294;13.626;2022-11-14T12:04:55;30.35;;;9.93;;
18433;SDS011;9344;52.294;13.626;2022-11-14T12:07:24;33.90;;;9.15;;
18433;SDS011;9344;52.294;13.626;2022-11-14T12:10:04;31.58;;;9.15;;
18433;SDS011;9344;52.294;13.626;2022-11-14T12:12:44;23.35;;;8.90;;
18433;SDS011;9344;52.294;13.626;2022-11-14T12:15:21;31.45;;;9.65;;
18433;SDS011;9344;52.294;13.626;2022-11-14T12:18:02;32.78;;;9.88;;
18433;SDS011;9344;52.294;13.626;2022-11-14T12:23:46;29.73;;;9.13;;
18433;SDS011;9344;52.294;13.626;2022-11-14T12:26:28;29.80;;;9.60;;
18433;SDS011;9344;52.294;13.626;2022-11-14T12:29:16;26.05;;;8.52;;
18433;SDS011;9344;52.294;13.626;2022-11-14T12:31:55;34.03;;;8.90;;
18433;SDS011;9344;52.294;13.626;2022-11-14T12:34:25;26.30;;;8.68;;
18433;SDS011;9344;52.294;13.626;2022-11-14T12:36:54;25.77;;;8.88;;
18433;SDS011;9344;52.294;13.626;2022-11-14T12:39:23;30.38;;;8.85;;
18433;SDS011;9344;52.294;13.626;2022-11-14T12:41:59;27.23;;;8.60;;
18433;SDS011;9344;52.294;13.626;2022-11-14T12:44:31;26.92;;;8.77;;
18433;SDS011;9344;52.294;13.626;2022-11-14T12:47:10;23.73;;;8.20;;
18433;SDS011;9344;52.294;13.626;2022-11-14T12:52:42;24.33;;;7.35;;
18433;SDS011;9344;52.294;13.626;2022-11-14T12:58:17;21.27;;;7.18;;
18433;SDS011;9344;52.294;13.626;2022-11-14T13:01:04;22.85;;;7.30;;
18433;SDS011;9344;52.294;13.626;2022-11-14T13:03:45;19.80;;;7.35;;
18433;SDS011;9344;52.294;13.626;2022-11-14T13:06:23;18.38;;;7.05;;
18433;SDS011;9344;52.294;13.626;2022-11-14T13:08:55;21.17;;;6.93;;
18433;SDS011;9344;52.294;13.626;2022-11-14T13:11:32;18.95;;;7.15;;
18433;SDS011;9344;52.294;13.626;2022-11-14T13:14:23;18.70;;;6.97;;
18433;SDS011;9344;52.294;13.626;2022-11-14T13:17:19;20.45;;;6.90;;
18433;SDS011;9344;52.294;13.626;2022-11-14T13:20:27;19.73;;;7.28;;
18433;SDS011;9344;52.294;13.626;2022-11-14T13:29:07;19.58;;;7.07;;
18433;SDS011;9344;52.294;13.626;2022-11-14T13:38:20;18.80;;;6.55;;
18433;SDS011;9344;52.294;13.626;2022-11-14T13:41:21;17.83;;;6.45;;
18433;SDS011;9344;52.294;13.626;2022-11-14T13:44:29;23.90;;;7.28;;
18433;SDS011;9344;52.294;13.626;2022-11-14T13:47:12;21.42;;;7.63;;
18433;SDS011;9344;52.294;13.626;2022-11-14T13:49:54;17.15;;;6.63;;
18433;SDS011;9344;52.294;13.626;2022-11-14T13:52:27;17.50;;;6.53;;
18433;SDS011;9344;52.294;13.626;2022-11-14T13:54:56;21.58;;;6.85;;
18433;SDS011;9344;52.294;13.626;2022-11-14T13:57:27;18.58;;;6.78;;
18433;SDS011;9344;52.294;13.626;2022-11-14T14:00:07;17.02;;;6.57;;
18433;SDS011;9344;52.294;13.626;2022-11-14T14:05:36;18.38;;;7.05;;
18433;SDS011;9344;52.294;13.626;2022-11-14T14:08:17;21.75;;;7.95;;
18433;SDS011;9344;52.294;13.626;2022-11-14T14:10:55;17.30;;;6.90;;
18433;SDS011;9344;52.294;13.626;2022-11-14T14:13:32;16.38;;;6.68;;
18433;SDS011;9344;52.294;13.626;2022-11-14T14:16:08;17.55;;;7.07;;
18433;SDS011;9344;52.294;13.626;2022-11-14T14:18:42;17.17;;;7.07;;
18433;SDS011;9344;52.294;13.626;2022-11-14T14:21:17;16.98;;;6.88;;
18433;SDS011;9344;52.294;13.626;2022-11-14T14:23:57;14.73;;;5.90;;
18433;SDS011;9344;52.294;13.626;2022-11-14T14:26:31;18.50;;;6.50;;
18433;SDS011;9344;52.294;13.626;2022-11-14T14:29:05;15.10;;;6.05;;
18433;SDS011;9344;52.294;13.626;2022-11-14T14:31:44;20.17;;;8.10;;
18433;SDS011;9344;52.294;13.626;2022-11-14T14:34:21;16.48;;;7.18;;
18433;SDS011;9344;52.294;13.626;2022-11-14T14:36:49;19.13;;;6.53;;
18433;SDS011;9344;52.294;13.626;2022-11-14T14:39:18;16.90;;;6.88;;
18433;SDS011;9344;52.294;13.626;2022-11-14T14:41:46;27.75;;;11.07;;
18433;SDS011;9344;52.294;13.626;2022-11-14T14:44:24;18.80;;;8.40;;
18433;SDS011;9344;52.294;13.626;2022-11-14T14:46:53;22.85;;;8.75;;
18433;SDS011;9344;52.294;13.626;2022-11-14T14:49:21;22.63;;;9.13;;
18433;SDS011;9344;52.294;13.626;2022-11-14T14:51:49;20.23;;;8.43;;
18433;SDS011;9344;52.294;13.626;2022-11-14T14:54:21;16.98;;;7.25;;
18433;SDS011;9344;52.294;13.626;2022-11-14T14:56:53;21.13;;;8.93;;
18433;SDS011;9344;52.294;13.626;2022-11-14T14:59:21;28.65;;;11.57;;
18433;SDS011;9344;52.294;13.626;2022-11-14T15:01:49;23.05;;;9.98;;
18433;SDS011;9344;52.294;13.626;2022-11-14T15:04:15;21.90;;;8.75;;
18433;SDS011;9344;52.294;13.626;2022-11-14T15:06:44;21.52;;;8.82;;
18433;SDS011;9344;52.294;13.626;2022-11-14T15:09:13;23.13;;;9.13;;
18433;SDS011;9344;52.294;13.626;2022-11-14T15:11:45;23.33;;;8.43;;